createdAt,value
2022-08-10T00:01:56.626Z,24.82
2022-08-10T00:04:25.494Z,24.83
2022-08-10T00:06:55.727Z,24.85
2022-08-10T00:09:25.287Z,24.88
2022-08-10T00:11:53.906Z,24.89
2022-08-10T00:14:23.039Z,24.90
2022-08-10T00:16:51.739Z,24.92
2022-08-10T00:19:20.461Z,24.95
2022-08-10T00:21:51.430Z,24.98
2022-08-10T00:24:19.952Z,25.01
2022-08-10T00:27:51.709Z,25.02
2022-08-10T00:29:37.253Z,25.05
2022-08-10T00:32:06.094Z,25.05
2022-08-10T00:34:35.627Z,25.09
2022-08-10T00:37:04.266Z,25.09
2022-08-10T00:39:36.291Z,25.10
2022-08-10T00:42:11.313Z,25.12
2022-08-10T00:44:48.930Z,25.12
2022-08-10T00:47:37.406Z,25.14
2022-08-10T00:50:08.860Z,25.16
2022-08-10T00:52:39.731Z,25.18
2022-08-10T00:55:08.842Z,25.22
2022-08-10T00:57:39.771Z,25.23
2022-08-10T01:00:10.402Z,25.26
2022-08-10T01:02:39.489Z,25.26
2022-08-10T01:05:13.473Z,25.30
2022-08-10T01:07:56.454Z,25.31
2022-08-10T01:10:57.000Z,25.33
2022-08-10T01:13:34.875Z,25.36
2022-08-10T01:16:32.212Z,25.38
2022-08-10T01:19:32.795Z,25.41
2022-08-10T01:22:38.009Z,25.44
2022-08-10T01:25:33.636Z,25.49
2022-08-10T01:28:32.551Z,25.53
2022-08-10T01:31:03.380Z,25.56
2022-08-10T01:33:58.575Z,25.63
2022-08-10T01:36:46.418Z,25.66
2022-08-10T01:39:26.448Z,25.69
2022-08-10T01:42:03.009Z,25.74
2022-08-10T01:44:36.740Z,25.76
2022-08-10T01:47:31.707Z,25.80
2022-08-10T01:50:21.316Z,25.84
2022-08-10T01:52:54.485Z,25.88
2022-08-10T01:55:24.405Z,25.92
2022-08-10T01:57:54.966Z,25.96
2022-08-10T02:00:23.709Z,26.02
2022-08-10T02:02:54.966Z,26.07
2022-08-10T02:05:26.687Z,26.12
2022-08-10T02:07:58.555Z,26.15
2022-08-10T02:10:28.756Z,26.19
2022-08-10T02:12:59.585Z,26.23
2022-08-10T02:15:32.438Z,26.27
2022-08-10T02:18:06.275Z,26.29
2022-08-10T02:20:52.567Z,26.32
2022-08-10T02:23:26.743Z,26.31
2022-08-10T02:25:58.394Z,26.33
2022-08-10T02:28:31.274Z,26.31
2022-08-10T02:31:11.711Z,26.30
2022-08-10T02:33:56.474Z,26.30
2022-08-10T02:36:30.870Z,26.31
2022-08-10T02:39:03.069Z,26.33
2022-08-10T02:42:17.993Z,26.34
2022-08-10T02:45:18.931Z,26.39
2022-08-10T02:47:51.607Z,26.42
2022-08-10T02:50:30.496Z,26.49
2022-08-10T02:53:55.052Z,26.53
2022-08-10T02:56:16.221Z,26.58
2022-08-10T02:59:21.967Z,26.66
2022-08-10T03:01:54.245Z,26.70
2022-08-10T03:04:55.462Z,26.75
2022-08-10T03:07:43.281Z,26.82
2022-08-10T03:10:14.543Z,26.87
2022-08-10T03:12:44.972Z,26.92
2022-08-10T03:15:16.169Z,26.93
2022-08-10T03:17:56.741Z,26.96
2022-08-10T03:20:36.869Z,26.98
2022-08-10T03:23:23.067Z,27.01
2022-08-10T03:25:54.867Z,27.06
2022-08-10T03:28:26.048Z,27.10
2022-08-10T03:30:56.038Z,27.10
2022-08-10T03:33:28.588Z,27.15
2022-08-10T03:36:41.229Z,27.19
2022-08-10T03:38:47.219Z,27.26
2022-08-10T03:41:17.849Z,27.30
2022-08-10T03:43:50.164Z,27.36
2022-08-10T03:46:25.187Z,27.40
2022-08-10T03:48:57.083Z,27.44
2022-08-10T03:51:28.487Z,27.44
2022-08-10T03:54:06.231Z,27.49
2022-08-10T03:56:37.787Z,27.51
2022-08-10T03:59:08.561Z,27.53
2022-08-10T04:02:46.746Z,27.54
2022-08-10T04:04:26.476Z,27.59
2022-08-10T04:07:00.109Z,27.62
2022-08-10T04:09:55.495Z,27.66
2022-08-10T04:12:23.150Z,27.65
2022-08-10T04:14:53.109Z,27.71
2022-08-10T04:17:59.309Z,27.70
2022-08-10T04:20:29.973Z,27.75
2022-08-10T04:23:09.276Z,27.80
2022-08-10T04:25:39.599Z,27.80
2022-08-10T04:28:09.907Z,27.85
2022-08-10T04:30:40.130Z,27.91
2022-08-10T04:33:10.839Z,27.95
2022-08-10T04:35:41.262Z,27.93
2022-08-10T04:38:11.150Z,27.98
2022-08-10T04:40:39.951Z,28.01
2022-08-10T04:43:12.878Z,28.05
2022-08-10T04:45:48.578Z,28.07
2022-08-10T04:48:42.658Z,28.10
2022-08-10T04:51:19.366Z,28.11
2022-08-10T04:54:03.887Z,28.18
2022-08-10T04:56:40.573Z,28.25
2022-08-10T04:59:11.702Z,28.25
2022-08-10T05:02:27.951Z,28.25
2022-08-10T05:04:35.232Z,28.25
2022-08-10T05:07:09.533Z,28.28
2022-08-10T05:10:01.516Z,28.33
2022-08-10T05:12:30.800Z,28.33
2022-08-10T05:14:59.419Z,28.34
2022-08-10T05:17:27.990Z,28.36
2022-08-10T05:20:02.847Z,28.38
2022-08-10T05:22:35.676Z,28.37
2022-08-10T05:25:05.342Z,28.38
2022-08-10T05:27:47.523Z,28.41
2022-08-10T05:30:22.132Z,28.42
2022-08-10T05:32:59.234Z,28.46
2022-08-10T05:35:55.243Z,28.50
2022-08-10T05:38:21.758Z,28.52
2022-08-10T05:40:51.457Z,28.55
2022-08-10T05:43:21.906Z,28.56
2022-08-10T05:46:17.245Z,28.57
2022-08-10T05:48:58.846Z,28.60
2022-08-10T05:51:30.913Z,28.63
2022-08-10T05:54:06.111Z,28.66
2022-08-10T05:56:55.555Z,28.69
2022-08-10T06:00:33.120Z,28.70
2022-08-10T06:02:54.477Z,28.74
2022-08-10T06:05:29.645Z,28.75
2022-08-10T06:08:13.881Z,28.78
2022-08-10T06:12:23.573Z,28.79
2022-08-10T06:14:16.115Z,28.78
2022-08-10T06:16:47.217Z,28.78
2022-08-10T06:19:16.768Z,28.80
2022-08-10T06:21:59.380Z,28.80
2022-08-10T06:25:02.746Z,28.83
2022-08-10T06:27:34.442Z,28.88
2022-08-10T06:30:04.147Z,28.91
2022-08-10T06:32:55.032Z,28.96
2022-08-10T06:35:26.731Z,29.01
2022-08-10T06:37:59.002Z,29.01
2022-08-10T06:40:31.022Z,29.07
2022-08-10T06:43:01.170Z,29.10
2022-08-10T06:45:36.728Z,29.13
2022-08-10T06:48:12.607Z,29.17
2022-08-10T06:50:57.916Z,29.20
2022-08-10T06:53:52.094Z,29.24
2022-08-10T06:56:36.807Z,29.30
2022-08-10T06:59:13.363Z,29.31
2022-08-10T07:01:55.728Z,29.35
2022-08-10T07:04:47.341Z,29.35
2022-08-10T07:07:22.786Z,29.39
2022-08-10T07:09:53.606Z,29.42
2022-08-10T07:12:24.957Z,29.42
2022-08-10T07:14:55.704Z,29.48
2022-08-10T07:17:27.125Z,29.51
2022-08-10T07:20:03.255Z,29.55
2022-08-10T07:23:05.904Z,29.59
2022-08-10T07:25:28.616Z,29.62
2022-08-10T07:28:01.800Z,29.61
2022-08-10T07:30:33.591Z,29.63
2022-08-10T07:33:03.819Z,29.68
2022-08-10T07:35:42.219Z,29.70
2022-08-10T07:38:20.893Z,29.77
2022-08-10T07:40:52.193Z,29.76
2022-08-10T07:43:24.550Z,29.81
2022-08-10T07:45:54.073Z,29.78
2022-08-10T07:48:32.158Z,29.81
2022-08-10T07:51:03.499Z,29.83
2022-08-10T07:53:44.196Z,29.82
2022-08-10T07:56:32.261Z,29.84
2022-08-10T07:59:13.128Z,29.81
2022-08-10T08:01:46.115Z,29.80
2022-08-10T08:04:16.267Z,29.81
2022-08-10T08:06:46.907Z,29.85
2022-08-10T08:09:15.931Z,29.84
2022-08-10T08:11:47.617Z,29.85
2022-08-10T08:14:17.888Z,29.85
2022-08-10T08:16:51.757Z,29.85
2022-08-10T08:19:26.690Z,29.84
2022-08-10T08:24:06.693Z,29.82
2022-08-10T08:24:47.264Z,29.84
2022-08-10T08:27:20.865Z,29.85
2022-08-10T08:29:52.127Z,29.86
2022-08-10T08:32:27.266Z,29.85
2022-08-10T08:34:59.132Z,29.84
2022-08-10T08:38:31.148Z,29.85
2022-08-10T08:40:27.986Z,29.87
2022-08-10T08:43:31.554Z,29.88
2022-08-10T08:46:20.789Z,29.88
2022-08-10T08:49:07.382Z,29.87
2022-08-10T08:52:18.417Z,29.88
2022-08-10T08:55:05.312Z,29.89
2022-08-10T08:58:22.068Z,29.91
2022-08-10T09:00:59.085Z,29.87
2022-08-10T09:03:56.009Z,29.86
2022-08-10T09:06:33.756Z,29.84
2022-08-10T09:09:39.539Z,29.83
2022-08-10T09:12:35.236Z,29.83
2022-08-10T09:15:39.951Z,29.83
2022-08-10T09:18:18.523Z,29.84
2022-08-10T09:21:02.286Z,29.83
2022-08-10T09:24:04.723Z,29.82
2022-08-10T09:26:50.322Z,29.78
2022-08-10T09:29:29.053Z,29.75
2022-08-10T09:35:39.246Z,29.72
2022-08-10T09:36:29.510Z,29.69
2022-08-10T09:38:22.285Z,29.64
2022-08-10T09:41:14.974Z,29.62
2022-08-10T09:43:52.431Z,29.57
2022-08-10T09:46:57.362Z,29.52
2022-08-10T09:49:54.740Z,29.47
2022-08-10T09:52:43.150Z,29.41
2022-08-10T09:56:18.638Z,29.36
2022-08-10T09:58:41.718Z,29.32
2022-08-10T10:02:03.201Z,29.28
2022-08-10T10:04:44.583Z,29.23
2022-08-10T10:07:21.074Z,29.21
2022-08-10T10:10:24.321Z,29.18
2022-08-10T10:13:10.749Z,29.18
2022-08-10T10:16:07.486Z,29.17
2022-08-10T10:19:24.498Z,29.14
2022-08-10T10:22:25.178Z,29.12
2022-08-10T10:25:51.478Z,29.09
2022-08-10T10:29:15.350Z,29.05
2022-08-10T10:31:44.279Z,29.03
2022-08-10T10:34:39.046Z,28.98
2022-08-10T10:37:09.816Z,28.96
2022-08-10T10:39:43.814Z,28.91
2022-08-10T10:42:44.868Z,28.88
2022-08-10T10:45:49.957Z,28.84
2022-08-10T10:48:42.398Z,28.79
2022-08-10T10:51:46.112Z,28.75
2022-08-10T10:54:37.013Z,28.73
2022-08-10T10:57:59.245Z,28.70
2022-08-10T11:00:23.417Z,28.67
2022-08-10T11:03:23.742Z,28.62
2022-08-10T11:06:10.883Z,28.58
2022-08-10T11:08:45.730Z,28.55
2022-08-10T11:12:02.064Z,28.50
2022-08-10T11:14:40.563Z,28.48
2022-08-10T11:17:30.032Z,28.45
2022-08-10T11:20:05.318Z,28.41
2022-08-10T11:22:51.632Z,28.35
2022-08-10T11:25:33.350Z,28.31
2022-08-10T11:28:29.374Z,28.25
2022-08-10T11:31:16.986Z,28.20
2022-08-10T11:36:49.241Z,28.11
2022-08-10T11:39:48.748Z,28.04
2022-08-10T11:42:47.051Z,27.99
2022-08-10T11:45:29.385Z,27.93
2022-08-10T11:48:10.788Z,27.88
2022-08-10T11:51:00.459Z,27.83
2022-08-10T11:53:54.306Z,27.79
2022-08-10T11:56:46.795Z,27.73
2022-08-10T11:59:36.435Z,27.68
2022-08-10T12:02:08.398Z,27.62
2022-08-10T12:04:41.942Z,27.58
2022-08-10T12:10:06.461Z,27.56
2022-08-10T12:10:12.495Z,27.51
2022-08-10T12:12:52.043Z,27.46
2022-08-10T12:15:37.863Z,27.44
2022-08-10T12:18:18.780Z,27.41
2022-08-10T12:20:52.742Z,27.39
2022-08-10T12:23:28.006Z,27.35
2022-08-10T12:26:09.551Z,27.33
2022-08-10T12:29:16.012Z,27.30
2022-08-10T12:32:05.802Z,27.27
2022-08-10T12:34:52.425Z,27.25
2022-08-10T12:37:35.767Z,27.23
2022-08-10T12:40:36.903Z,27.20
2022-08-10T12:44:04.653Z,27.18
2022-08-10T12:46:50.834Z,27.14
2022-08-10T12:50:17.178Z,27.12
2022-08-10T12:52:52.851Z,27.10
2022-08-10T12:55:23.881Z,27.08
2022-08-10T12:57:56.721Z,27.06
2022-08-10T13:00:44.853Z,27.04
2022-08-10T13:04:23.349Z,27.04
2022-08-10T13:06:16.817Z,27.03
2022-08-10T13:09:06.489Z,27.02
2022-08-10T13:12:36.917Z,27.00
2022-08-10T13:14:39.459Z,27.00
2022-08-10T13:17:10.798Z,27.00
2022-08-10T13:19:56.095Z,26.98
2022-08-10T13:22:31.798Z,26.97
2022-08-10T13:25:04.388Z,26.97
2022-08-10T13:28:02.397Z,26.95
2022-08-10T13:30:37.308Z,26.94
2022-08-10T13:33:10.812Z,26.93
2022-08-10T13:35:40.532Z,26.92
2022-08-10T13:38:12.000Z,26.90
2022-08-10T13:40:41.382Z,26.91
2022-08-10T13:43:11.713Z,26.88
2022-08-10T13:45:49.384Z,26.88
2022-08-10T13:48:24.076Z,26.88
2022-08-10T13:50:58.168Z,26.87
2022-08-10T13:53:34.182Z,26.86
2022-08-10T13:56:06.355Z,26.86
2022-08-10T13:58:41.921Z,26.85
2022-08-10T14:01:22.043Z,26.83
2022-08-10T14:03:53.093Z,26.81
2022-08-10T14:06:29.838Z,26.80
2022-08-10T14:09:03.500Z,26.78
2022-08-10T14:11:34.283Z,26.75
2022-08-10T14:14:19.572Z,26.75
2022-08-10T14:16:49.053Z,26.72
2022-08-10T14:19:30.952Z,26.69
2022-08-10T14:22:01.737Z,26.68
2022-08-10T14:24:31.968Z,26.65
2022-08-10T14:27:11.525Z,26.63
2022-08-10T14:30:00.425Z,26.61
2022-08-10T14:32:33.694Z,26.60
2022-08-10T14:36:20.314Z,26.59
2022-08-10T14:38:01.350Z,26.55
2022-08-10T14:40:46.355Z,26.55
2022-08-10T14:43:28.521Z,26.54
2022-08-10T14:46:22.101Z,26.55
2022-08-10T14:48:52.321Z,26.53
2022-08-10T14:51:27.782Z,26.54
2022-08-10T14:54:17.619Z,26.54
2022-08-10T14:56:48.990Z,26.53
2022-08-10T14:59:20.441Z,26.53
2022-08-10T15:02:01.289Z,26.52
2022-08-10T15:04:47.708Z,26.51
2022-08-10T15:07:25.126Z,26.50
2022-08-10T15:09:59.455Z,26.48
2022-08-10T15:12:38.379Z,26.49
2022-08-10T15:15:16.492Z,26.47
2022-08-10T15:17:57.530Z,26.47
2022-08-10T15:20:28.819Z,26.46
2022-08-10T15:23:29.940Z,26.47
2022-08-10T15:26:11.030Z,26.46
2022-08-10T15:29:23.362Z,26.45
2022-08-10T15:31:57.604Z,26.45
2022-08-10T15:34:47.464Z,26.46
2022-08-10T15:37:40.588Z,26.46
2022-08-10T15:40:27.979Z,26.45
2022-08-10T15:43:24.974Z,26.45
2022-08-10T15:46:30.182Z,26.44
2022-08-10T15:49:04.469Z,26.44
2022-08-10T15:52:10.869Z,26.44
2022-08-10T15:55:42.551Z,26.44
2022-08-10T15:58:08.170Z,26.43
2022-08-10T16:00:45.473Z,26.40
2022-08-10T16:03:45.942Z,26.39
2022-08-10T16:06:55.737Z,26.39
2022-08-10T16:10:23.637Z,26.37
2022-08-10T16:12:30.044Z,26.38
2022-08-10T16:15:04.541Z,26.36
2022-08-10T16:17:54.142Z,26.36
2022-08-10T16:20:47.937Z,26.35
2022-08-10T16:23:37.490Z,26.35
2022-08-10T16:26:15.484Z,26.34
2022-08-10T16:29:01.080Z,26.33
2022-08-10T16:31:34.030Z,26.33
2022-08-10T16:34:06.738Z,26.33
2022-08-10T16:36:42.753Z,26.33
2022-08-10T16:39:16.357Z,26.32
2022-08-10T16:42:06.065Z,26.31
2022-08-10T16:45:08.307Z,26.30
2022-08-10T16:47:47.782Z,26.30
2022-08-10T16:50:22.840Z,26.30
2022-08-10T16:52:53.813Z,26.29
2022-08-10T16:55:48.858Z,26.27
2022-08-10T16:58:18.967Z,26.27
2022-08-10T17:00:50.729Z,26.26
2022-08-10T17:04:06.900Z,26.26
2022-08-10T17:07:05.179Z,26.26
2022-08-10T17:09:38.467Z,26.27
2022-08-10T17:12:12.366Z,26.28
2022-08-10T17:14:43.257Z,26.30
2022-08-10T17:17:25.829Z,26.31
2022-08-10T17:20:30.395Z,26.33
2022-08-10T17:22:54.952Z,26.34
2022-08-10T17:25:48.614Z,26.34
2022-08-10T17:28:33.156Z,26.37
2022-08-10T17:31:18.969Z,26.38
2022-08-10T17:34:13.386Z,26.39
2022-08-10T17:36:44.065Z,26.39
2022-08-10T17:39:15.239Z,26.39
2022-08-10T17:41:49.484Z,26.40
2022-08-10T17:44:19.715Z,26.41
2022-08-10T17:46:48.990Z,26.40
2022-08-10T17:49:21.578Z,26.40
2022-08-10T17:51:55.483Z,26.41
2022-08-10T17:54:35.898Z,26.42
2022-08-10T17:57:11.375Z,26.41
2022-08-10T17:59:40.946Z,26.41
2022-08-10T18:02:19.053Z,26.42
2022-08-10T18:04:57.798Z,26.41
2022-08-10T18:07:42.090Z,26.42
2022-08-10T18:10:12.782Z,26.41
2022-08-10T18:12:45.970Z,26.41
2022-08-10T18:15:23.071Z,26.41
2022-08-10T18:17:59.111Z,26.42
2022-08-10T18:20:36.595Z,26.41
2022-08-10T18:23:08.610Z,26.41
2022-08-10T18:25:40.942Z,26.40
2022-08-10T18:28:16.429Z,26.41
2022-08-10T18:30:52.455Z,26.41
2022-08-10T18:33:27.972Z,26.40
2022-08-10T18:35:58.282Z,26.41
2022-08-10T18:38:29.532Z,26.40
2022-08-10T18:41:21.342Z,26.41
2022-08-10T18:44:05.807Z,26.40
2022-08-10T18:46:47.682Z,26.41
2022-08-10T18:49:34.272Z,26.41
2022-08-10T18:52:09.608Z,26.41
2022-08-10T18:55:05.256Z,26.40
2022-08-10T18:57:43.134Z,26.39
2022-08-10T19:00:15.040Z,26.39
2022-08-10T19:02:58.466Z,26.39
2022-08-10T19:05:44.344Z,26.37
2022-08-10T19:08:30.009Z,26.37
2022-08-10T19:11:28.904Z,26.37
2022-08-10T19:14:04.262Z,26.37
2022-08-10T19:16:57.059Z,26.36
2022-08-10T19:20:09.770Z,26.35
2022-08-10T19:22:52.883Z,26.35
2022-08-10T19:26:39.395Z,26.35
2022-08-10T19:30:00.992Z,26.34
2022-08-10T19:32:33.014Z,26.34
2022-08-10T19:35:23.644Z,26.33
2022-08-10T19:38:01.850Z,26.32
2022-08-10T19:41:10.013Z,26.31
2022-08-10T19:44:01.734Z,26.31
2022-08-10T19:46:45.032Z,26.31
2022-08-10T19:49:51.404Z,26.31
2022-08-10T19:52:34.488Z,26.30
2022-08-10T19:55:23.129Z,26.30
2022-08-10T19:58:18.088Z,26.29
2022-08-10T20:01:00.321Z,26.28
2022-08-10T20:03:47.011Z,26.28
2022-08-10T20:06:26.068Z,26.28
2022-08-10T20:08:58.037Z,26.28
2022-08-10T20:11:59.631Z,26.27
2022-08-10T20:14:40.508Z,26.26
2022-08-10T20:17:27.565Z,26.27
2022-08-10T20:20:11.012Z,26.26
2022-08-10T20:22:49.280Z,26.28
2022-08-10T20:25:32.771Z,26.28
2022-08-10T20:28:12.985Z,26.27
2022-08-10T20:30:48.379Z,26.27
2022-08-10T20:33:19.785Z,26.25
2022-08-10T20:35:57.662Z,26.23
2022-08-10T20:39:06.907Z,26.22
2022-08-10T20:41:47.284Z,26.23
2022-08-10T20:44:40.402Z,26.21
2022-08-10T20:47:28.823Z,26.20
2022-08-10T20:50:21.352Z,26.18
2022-08-10T20:52:53.072Z,26.18
2022-08-10T20:55:26.602Z,26.18
2022-08-10T20:58:16.171Z,26.18
2022-08-10T21:01:20.256Z,26.16
2022-08-10T21:04:14.900Z,26.15
2022-08-10T21:07:44.133Z,26.16
2022-08-10T21:10:28.341Z,26.15
2022-08-10T21:13:02.609Z,26.15
2022-08-10T21:16:08.002Z,26.14
2022-08-10T21:19:17.673Z,26.13
2022-08-10T21:21:59.180Z,26.13
2022-08-10T21:24:55.184Z,26.11
2022-08-10T21:27:24.009Z,26.11
2022-08-10T21:30:10.297Z,26.10
2022-08-10T21:32:50.802Z,26.10
2022-08-10T21:35:52.106Z,26.09
2022-08-10T21:38:55.036Z,26.09
2022-08-10T21:41:56.687Z,26.07
2022-08-10T21:45:16.696Z,26.07
2022-08-10T21:48:31.036Z,26.04
2022-08-10T21:51:24.474Z,26.04
2022-08-10T21:54:40.668Z,26.02
2022-08-10T21:57:43.551Z,26.01
2022-08-10T22:00:44.693Z,26.00
2022-08-10T22:03:39.617Z,25.99
2022-08-10T22:06:30.016Z,25.98
2022-08-10T22:09:25.208Z,25.97
2022-08-10T22:12:31.083Z,25.95
2022-08-10T22:16:01.554Z,25.95
2022-08-10T22:19:01.771Z,25.93
2022-08-10T22:22:26.977Z,25.92
2022-08-10T22:25:17.861Z,25.90
2022-08-10T22:28:13.629Z,25.90
2022-08-10T22:31:31.066Z,25.88
2022-08-10T22:34:40.025Z,25.88
2022-08-10T22:38:07.744Z,25.87
2022-08-10T22:40:55.668Z,25.87
2022-08-10T22:43:50.014Z,25.84
2022-08-10T22:46:47.449Z,25.83
2022-08-10T22:49:26.774Z,25.83
2022-08-10T22:52:07.912Z,25.83
2022-08-10T22:55:07.804Z,25.83
2022-08-10T22:57:54.886Z,25.83
2022-08-10T23:00:30.698Z,25.82
2022-08-10T23:03:13.888Z,25.83
2022-08-10T23:06:15.879Z,25.82
2022-08-10T23:08:58.243Z,25.83
2022-08-10T23:11:39.499Z,25.82
2022-08-10T23:14:10.867Z,25.82
2022-08-10T23:17:03.847Z,25.83
2022-08-10T23:19:46.111Z,25.83
2022-08-10T23:22:17.699Z,25.84
2022-08-10T23:24:53.127Z,25.84
2022-08-10T23:27:37.882Z,25.85
2022-08-10T23:30:17.129Z,25.86
2022-08-10T23:32:53.134Z,25.87
2022-08-10T23:36:05.681Z,25.88
2022-08-10T23:38:17.294Z,25.90
2022-08-10T23:40:50.020Z,25.89
2022-08-10T23:43:46.732Z,25.90
2022-08-10T23:46:16.870Z,25.94
2022-08-10T23:48:48.369Z,25.94
2022-08-10T23:51:19.789Z,25.95
2022-08-10T23:53:51.357Z,25.96
2022-08-10T23:56:26.434Z,25.99
2022-08-10T23:58:56.916Z,26.00
